If you wish to contribute or participate in the discussions about articles you are invited to join SKYbrary as a registered user

 Actions

Surabaya/Juanda International Airport

From SKYbrary Wiki

WARR
Airport
ICAO: WARR – IATA: SUB
Summary
Name Surabaya/Juanda International Airport
Region Asia and Pacific
Territory Indonesia ID.gif
Location Sidoarjo, Jawa Timur
Serving Surabaya
Elevation 2.743 m
9 ft
9 ft2.743 m
Type large airport
Coordinates 7° 22' 47.39" S, 112° 47' 12.69" E
Runways
Designator Length Width Surface ROPS
10/28 3000 m9,842.52 ft
45 m147.638 ft
ASP yes/yes


METAR
Observation WARR 250200Z 26006KT 230V300 8000 FEW020 30/25 Q1011 NOSIG
Station JUANDA
Date/Time 25 March 2019 02:00:00
Wind direction 260°
Wind speed 06 kts
Lowest cloud amount few clouds
Temperature 30°C
Dew point 25°C
Humidity 74%
QNH 1011 hPa
Weather condition n/a

Juanda International Airport is an airport located in Sidoarjo, a small town near Surabaya, East Java. This airport serves Surabaya and surrounding areas.

Climatology

Tropical Savanna climate (Köppen climate classification Aw) - monthly mean temperature above 18°C64.4 °F
291.15 K
524.07 °R
in every month of the year and a pronounced dry season.

Maps

Terrain

Loading map...

Airport Layout

Loading map...


Accidents & Serious Incidents at or in vicinity of WARR

None on SKYbrary